Time;durP1;ratioP1;P1;durP2;ratioP2;P2;SDS_P1;SDS_P2;PMS_P1;PMS_P2;Temp;Humidity;BMP_temperature;BMP_pressure;BME280_temperature;BME280_humidity;BME280_pressure;Samples;Min_cycle;Max_cycle;Signal;HPM_P1;HPM_P2
2022/10/15 00:00:48;;;;;;;0.70;0.70;;;;;;;;;;5085164;28;20786;-87
2022/10/15 00:03:17;;;;;;;0.60;0.60;;;;;;;;;;5083104;28;20430;-87
2022/10/15 00:05:44;;;;;;;0.70;0.70;;;;;;;;;;5085011;28;20465;-87
2022/10/15 00:08:14;;;;;;;0.60;0.60;;;;;;;;;;5081299;28;20847;-84
2022/10/15 00:10:40;;;;;;;0.80;0.80;;;;;;;;;;5085398;28;20468;-86
2022/10/15 00:13:08;;;;;;;1.20;1.10;;;;;;;;;;5089530;28;20480;-85
2022/10/15 00:15:36;;;;;;;0.70;0.70;;;;;;;;;;5084184;28;20426;-87
2022/10/15 00:18:03;;;;;;;0.70;0.70;;;;;;;;;;5078963;28;21001;-85
2022/10/15 00:20:30;;;;;;;1.20;1.10;;;;;;;;;;5072291;28;20844;-85
2022/10/15 00:22:57;;;;;;;0.70;0.70;;;;;;;;;;5087811;28;20437;-88
2022/10/15 00:25:25;;;;;;;0.70;0.70;;;;;;;;;;5079576;28;20454;-88
2022/10/15 00:27:53;;;;;;;0.67;0.60;;;;;;;;;;5066684;28;20445;-88
2022/10/15 00:30:20;;;;;;;0.80;0.80;;;;;;;;;;5083847;28;20485;-88
2022/10/15 00:32:46;;;;;;;0.70;0.70;;;;;;;;;;5069001;28;20857;-88
2022/10/15 00:35:14;;;;;;;0.70;0.67;;;;;;;;;;5086756;28;20445;-89
2022/10/15 00:37:42;;;;;;;0.70;0.70;;;;;;;;;;5080458;28;20457;-86
2022/10/15 00:40:10;;;;;;;0.83;0.80;;;;;;;;;;5088545;28;20435;-88
2022/10/15 00:42:39;;;;;;;0.60;0.60;;;;;;;;;;5080469;28;20450;-86
2022/10/15 00:45:10;;;;;;;0.80;0.80;;;;;;;;;;5067189;28;20439;-90
2022/10/15 00:47:40;;;;;;;0.77;0.77;;;;;;;;;;5082006;28;20478;-86
2022/10/15 00:50:09;;;;;;;0.70;0.70;;;;;;;;;;5081624;28;20521;-86
2022/10/15 00:52:41;;;;;;;0.70;0.70;;;;;;;;;;5084620;28;20453;-87
2022/10/15 00:55:11;;;;;;;0.70;0.70;;;;;;;;;;5076922;28;20453;-88
2022/10/15 00:57:44;;;;;;;1.30;1.20;;;;;;;;;;5063508;28;20466;-84
2022/10/15 01:00:19;;;;;;;0.80;0.80;;;;;;;;;;5086033;28;20501;-86
2022/10/15 01:02:48;;;;;;;0.63;0.63;;;;;;;;;;5083174;28;20448;-87
2022/10/15 01:05:18;;;;;;;0.70;0.60;;;;;;;;;;5077168;28;20531;-86
2022/10/15 01:07:47;;;;;;;0.70;0.70;;;;;;;;;;5070269;28;20452;-85
2022/10/15 01:10:19;;;;;;;0.70;0.70;;;;;;;;;;5086689;28;20470;-86
2022/10/15 01:12:56;;;;;;;1.20;1.13;;;;;;;;;;5060373;28;20457;-86
2022/10/15 01:15:36;;;;;;;0.80;0.80;;;;;;;;;;5056128;28;20452;-86
2022/10/15 01:18:07;;;;;;;0.70;0.70;;;;;;;;;;5083813;28;20508;-87
2022/10/15 01:20:43;;;;;;;0.70;0.70;;;;;;;;;;5077359;28;20472;-89
2022/10/15 01:23:39;;;;;;;0.70;0.70;;;;;;;;;;5086118;28;20422;-87
2022/10/15 01:26:23;;;;;;;0.77;0.77;;;;;;;;;;5037944;28;20984;-87
2022/10/15 01:29:02;;;;;;;0.67;0.63;;;;;;;;;;5079462;28;20485;-86
2022/10/15 01:31:40;;;;;;;0.70;0.70;;;;;;;;;;5078526;28;20563;-85
2022/10/15 01:34:13;;;;;;;0.70;0.70;;;;;;;;;;5057309;28;20488;-87
2022/10/15 01:36:50;;;;;;;0.70;0.70;;;;;;;;;;5048481;28;20472;-87
2022/10/15 01:39:27;;;;;;;0.70;0.70;;;;;;;;;;5080745;28;20995;-88
2022/10/15 01:41:59;;;;;;;0.60;0.60;;;;;;;;;;5077411;28;20469;-85
2022/10/15 01:44:36;;;;;;;0.80;0.80;;;;;;;;;;5078182;28;21015;-85
2022/10/15 01:47:47;;;;;;;1.40;1.23;;;;;;;;;;5081344;28;20434;-84
2022/10/15 01:50:20;;;;;;;0.70;0.70;;;;;;;;;;5061890;28;20472;-85
2022/10/15 01:52:55;;;;;;;0.80;0.80;;;;;;;;;;5055831;28;20457;-85
2022/10/15 01:55:28;;;;;;;0.70;0.70;;;;;;;;;;5054086;28;20466;-87
2022/10/15 01:57:59;;;;;;;0.90;0.90;;;;;;;;;;5056565;28;20513;-85
2022/10/15 02:00:31;;;;;;;0.60;0.60;;;;;;;;;;5080591;28;20810;-87
2022/10/15 02:03:05;;;;;;;0.80;0.80;;;;;;;;;;5062537;28;20994;-85
2022/10/15 02:05:39;;;;;;;0.70;0.63;;;;;;;;;;5087887;28;20474;-85
2022/10/15 02:08:13;;;;;;;0.83;0.83;;;;;;;;;;5092187;28;20450;-84
2022/10/15 02:10:49;;;;;;;0.70;0.70;;;;;;;;;;5081560;28;20500;-85
2022/10/15 02:13:27;;;;;;;1.40;1.30;;;;;;;;;;5084981;28;20458;-86
2022/10/15 02:16:01;;;;;;;0.70;0.67;;;;;;;;;;5084855;28;20487;-87
2022/10/15 02:18:40;;;;;;;0.70;0.70;;;;;;;;;;5088876;28;20419;-85
2022/10/15 02:21:15;;;;;;;1.07;1.07;;;;;;;;;;5086617;28;20474;-85
2022/10/15 02:23:51;;;;;;;0.70;0.70;;;;;;;;;;5084962;28;20553;-86
2022/10/15 02:26:28;;;;;;;1.37;1.27;;;;;;;;;;5064542;28;20509;-87
2022/10/15 02:28:58;;;;;;;3.33;1.67;;;;;;;;;;5087731;28;20512;-89
2022/10/15 02:31:27;;;;;;;0.70;0.70;;;;;;;;;;5056288;28;20564;-87
2022/10/15 02:33:59;;;;;;;1.10;1.00;;;;;;;;;;5065298;28;20497;-88
2022/10/15 02:36:28;;;;;;;1.50;1.43;;;;;;;;;;5067707;28;20476;-88
2022/10/15 02:38:55;;;;;;;0.70;0.70;;;;;;;;;;5073005;28;20447;-87
2022/10/15 02:41:22;;;;;;;1.57;1.47;;;;;;;;;;5086998;28;20483;-87
2022/10/15 02:43:51;;;;;;;0.80;0.80;;;;;;;;;;5068505;28;20461;-90
2022/10/15 02:46:19;;;;;;;0.70;0.70;;;;;;;;;;5087788;28;20449;-88
2022/10/15 02:48:45;;;;;;;0.70;0.70;;;;;;;;;;5087056;28;20429;-88
2022/10/15 02:51:17;;;;;;;0.77;0.77;;;;;;;;;;5071828;28;20582;-89
2022/10/15 02:53:45;;;;;;;0.70;0.70;;;;;;;;;;5056266;28;20450;-85
2022/10/15 02:56:11;;;;;;;0.70;0.70;;;;;;;;;;5084294;28;20438;-89
2022/10/15 02:58:38;;;;;;;0.80;0.80;;;;;;;;;;5082256;28;20523;-89
2022/10/15 03:01:07;;;;;;;1.00;1.00;;;;;;;;;;5073337;28;20935;-89
2022/10/15 03:03:35;;;;;;;1.03;0.80;;;;;;;;;;5087036;28;20451;-88
2022/10/15 03:06:04;;;;;;;0.80;0.80;;;;;;;;;;5065219;28;20546;-87
2022/10/15 03:08:35;;;;;;;1.57;1.47;;;;;;;;;;5080374;28;20442;-90
2022/10/15 03:11:03;;;;;;;0.80;0.80;;;;;;;;;;5081357;28;20564;-87
2022/10/15 03:13:34;;;;;;;0.70;0.70;;;;;;;;;;5069202;28;20460;-90
2022/10/15 03:16:02;;;;;;;0.60;0.60;;;;;;;;;;5076014;28;20820;-89
2022/10/15 03:18:30;;;;;;;0.80;0.80;;;;;;;;;;5074375;28;20448;-87
2022/10/15 03:21:05;;;;;;;0.70;0.70;;;;;;;;;;5087655;28;20541;-85
2022/10/15 03:23:35;;;;;;;0.63;0.60;;;;;;;;;;5083879;28;20452;-89
2022/10/15 03:26:12;;;;;;;0.70;0.70;;;;;;;;;;5071572;28;20488;-86
2022/10/15 03:28:39;;;;;;;0.70;0.70;;;;;;;;;;5087209;28;20460;-86
2022/10/15 03:31:06;;;;;;;0.70;0.70;;;;;;;;;;5083958;28;20451;-85
2022/10/15 03:33:33;;;;;;;0.70;0.70;;;;;;;;;;5079536;28;20462;-85
2022/10/15 03:36:01;;;;;;;0.70;0.70;;;;;;;;;;5083233;28;20465;-88
2022/10/15 03:38:28;;;;;;;4.03;1.57;;;;;;;;;;5088196;28;20957;-87
2022/10/15 03:40:57;;;;;;;0.73;0.73;;;;;;;;;;5067786;28;20434;-88
2022/10/15 03:43:31;;;;;;;1.33;1.23;;;;;;;;;;5083532;28;20445;-89
2022/10/15 03:46:03;;;;;;;0.60;0.60;;;;;;;;;;5083781;28;20966;-88
2022/10/15 03:48:36;;;;;;;0.60;0.60;;;;;;;;;;5081075;28;21035;-87
2022/10/15 03:51:03;;;;;;;0.80;0.80;;;;;;;;;;5079745;28;20481;-86
2022/10/15 03:53:32;;;;;;;0.70;0.70;;;;;;;;;;5082389;28;20992;-87
2022/10/15 03:56:04;;;;;;;1.10;1.07;;;;;;;;;;5080863;28;20453;-87
2022/10/15 03:58:32;;;;;;;0.70;0.70;;;;;;;;;;5082165;28;20481;-88
2022/10/15 04:01:06;;;;;;;0.70;0.70;;;;;;;;;;5085119;28;20488;-85
2022/10/15 04:03:37;;;;;;;0.63;0.63;;;;;;;;;;5073795;28;20569;-85
2022/10/15 04:06:05;;;;;;;0.60;0.60;;;;;;;;;;5085789;28;21038;-85
2022/10/15 04:08:34;;;;;;;0.70;0.70;;;;;;;;;;5068033;28;20535;-87
2022/10/15 04:11:12;;;;;;;0.70;0.70;;;;;;;;;;5071434;28;20836;-90
2022/10/15 04:13:39;;;;;;;0.70;0.70;;;;;;;;;;5082825;28;20444;-90
2022/10/15 04:16:07;;;;;;;0.70;0.70;;;;;;;;;;5084587;28;20991;-90
2022/10/15 04:18:33;;;;;;;0.70;0.70;;;;;;;;;;5065193;28;20453;-88
2022/10/15 04:21:03;;;;;;;1.00;1.00;;;;;;;;;;5083047;28;20469;-87
2022/10/15 04:23:31;;;;;;;0.63;0.63;;;;;;;;;;5087341;28;20448;-88
2022/10/15 04:26:22;;;;;;;1.37;1.27;;;;;;;;;;5071131;28;20439;-89
2022/10/15 04:28:49;;;;;;;1.20;1.10;;;;;;;;;;5079914;28;20488;-87
2022/10/15 04:31:19;;;;;;;1.30;1.20;;;;;;;;;;5067986;28;20469;-86
2022/10/15 04:33:47;;;;;;;0.90;0.90;;;;;;;;;;5067596;28;20554;-87
2022/10/15 04:36:14;;;;;;;0.70;0.70;;;;;;;;;;5079188;28;20513;-88
2022/10/15 04:38:51;;;;;;;0.80;0.80;;;;;;;;;;5081962;28;20515;-87
2022/10/15 04:41:29;;;;;;;0.60;0.60;;;;;;;;;;5069411;28;20799;-88
2022/10/15 04:44:03;;;;;;;0.70;0.70;;;;;;;;;;5080603;28;20473;-86
2022/10/15 04:46:31;;;;;;;0.60;0.60;;;;;;;;;;5066651;28;20876;-89
2022/10/15 04:49:06;;;;;;;1.20;1.10;;;;;;;;;;5068432;28;20457;-87
2022/10/15 04:51:34;;;;;;;0.70;0.60;;;;;;;;;;5072485;28;20482;-89
2022/10/15 04:54:18;;;;;;;0.70;0.70;;;;;;;;;;5067556;28;20527;-89
2022/10/15 04:56:58;;;;;;;0.70;0.70;;;;;;;;;;5079709;28;20506;-89
2022/10/15 04:59:27;;;;;;;0.67;0.67;;;;;;;;;;5081608;28;20955;-88
2022/10/15 05:02:14;;;;;;;0.60;0.60;;;;;;;;;;5080349;28;20997;-90
2022/10/15 05:04:43;;;;;;;0.60;0.60;;;;;;;;;;5076120;28;20458;-90
2022/10/15 05:07:09;;;;;;;1.07;1.07;;;;;;;;;;5068085;28;20534;-90
2022/10/15 05:09:36;;;;;;;0.70;0.70;;;;;;;;;;5085542;28;21244;-86
2022/10/15 05:12:06;;;;;;;1.37;1.10;;;;;;;;;;5061372;28;20474;-89
2022/10/15 05:14:34;;;;;;;0.70;0.70;;;;;;;;;;5082473;28;20536;-89
2022/10/15 05:17:09;;;;;;;0.60;0.60;;;;;;;;;;5074078;28;20549;-89
2022/10/15 05:19:40;;;;;;;0.60;0.60;;;;;;;;;;5077138;28;20876;-89
2022/10/15 05:22:15;;;;;;;0.60;0.60;;;;;;;;;;5081700;28;20563;-89
2022/10/15 05:24:49;;;;;;;6.10;1.10;;;;;;;;;;5082251;28;20951;-88
2022/10/15 05:27:32;;;;;;;0.67;0.67;;;;;;;;;;5081894;28;20479;-89
2022/10/15 05:30:03;;;;;;;0.80;0.80;;;;;;;;;;5079486;28;20447;-89
2022/10/15 05:32:50;;;;;;;0.70;0.70;;;;;;;;;;5077941;28;20479;-89
2022/10/15 05:35:18;;;;;;;0.60;0.60;;;;;;;;;;5081384;28;20452;-87
2022/10/15 05:37:58;;;;;;;0.77;0.77;;;;;;;;;;5054855;28;20440;-89
2022/10/15 05:40:26;;;;;;;0.67;0.60;;;;;;;;;;5080082;28;20450;-90
2022/10/15 05:43:04;;;;;;;0.70;0.70;;;;;;;;;;5073175;28;20447;-89
2022/10/15 05:45:30;;;;;;;0.60;0.60;;;;;;;;;;5085934;28;20522;-88
2022/10/15 05:48:02;;;;;;;0.87;0.83;;;;;;;;;;5080218;28;20478;-90
2022/10/15 05:50:30;;;;;;;1.00;1.00;;;;;;;;;;5085528;28;20480;-90
2022/10/15 05:53:02;;;;;;;0.73;0.73;;;;;;;;;;5060702;28;20463;-89
2022/10/15 05:55:46;;;;;;;0.80;0.80;;;;;;;;;;5067428;28;20440;-89
2022/10/15 05:58:14;;;;;;;0.80;0.80;;;;;;;;;;5082033;28;20441;-88
2022/10/15 06:00:41;;;;;;;0.70;0.70;;;;;;;;;;5068850;28;20487;-87
2022/10/15 06:03:15;;;;;;;0.80;0.80;;;;;;;;;;5082984;28;20991;-89
2022/10/15 06:05:48;;;;;;;0.70;0.70;;;;;;;;;;5076097;28;21072;-89
2022/10/15 06:08:19;;;;;;;0.70;0.70;;;;;;;;;;5057838;28;20856;-88
2022/10/15 06:10:46;;;;;;;0.70;0.70;;;;;;;;;;5087368;28;20484;-88
2022/10/15 06:13:14;;;;;;;0.80;0.80;;;;;;;;;;5073643;28;20838;-87
2022/10/15 06:15:44;;;;;;;1.00;1.00;;;;;;;;;;5087936;28;20818;-90
2022/10/15 06:18:14;;;;;;;0.60;0.60;;;;;;;;;;5080748;28;20438;-91
2022/10/15 06:20:49;;;;;;;0.70;0.70;;;;;;;;;;5080424;28;20462;-87
2022/10/15 06:23:16;;;;;;;0.60;0.60;;;;;;;;;;5060542;28;20427;-83
2022/10/15 06:25:43;;;;;;;0.90;0.90;;;;;;;;;;5087986;28;20443;-88
2022/10/15 06:28:10;;;;;;;1.57;1.47;;;;;;;;;;5066219;28;20451;-90
2022/10/15 06:30:42;;;;;;;0.60;0.60;;;;;;;;;;5079004;28;20434;-87
2022/10/15 06:33:09;;;;;;;0.70;0.70;;;;;;;;;;5081524;28;20986;-87
2022/10/15 06:35:40;;;;;;;0.70;0.63;;;;;;;;;;5082517;28;20466;-89
2022/10/15 06:38:07;;;;;;;0.80;0.80;;;;;;;;;;5087361;28;20440;-90
2022/10/15 06:40:34;;;;;;;0.80;0.80;;;;;;;;;;5076078;28;20764;-89
2022/10/15 06:43:04;;;;;;;0.80;0.77;;;;;;;;;;5079575;28;20422;-88
2022/10/15 06:45:31;;;;;;;0.80;0.80;;;;;;;;;;5077995;28;20448;-89
2022/10/15 06:47:59;;;;;;;1.93;1.83;;;;;;;;;;5082435;28;20870;-89
2022/10/15 06:50:26;;;;;;;1.17;1.03;;;;;;;;;;5084147;28;20566;-89
2022/10/15 06:52:53;;;;;;;0.60;0.60;;;;;;;;;;5089579;28;20532;-91
2022/10/15 06:55:20;;;;;;;2.40;2.20;;;;;;;;;;5078981;28;21240;-86
2022/10/15 06:57:47;;;;;;;0.70;0.70;;;;;;;;;;5086406;28;20900;-87
2022/10/15 07:00:15;;;;;;;0.70;0.67;;;;;;;;;;5082491;28;20457;-89
2022/10/15 07:02:42;;;;;;;0.70;0.70;;;;;;;;;;5098054;28;20442;-88
2022/10/15 07:05:11;;;;;;;1.10;0.90;;;;;;;;;;5091014;28;20484;-86
2022/10/15 07:07:38;;;;;;;0.70;0.70;;;;;;;;;;5084123;28;20796;-88
2022/10/15 07:10:11;;;;;;;0.70;0.70;;;;;;;;;;5083731;28;20520;-90
2022/10/15 07:12:39;;;;;;;0.70;0.70;;;;;;;;;;5066876;28;20463;-86
2022/10/15 07:15:07;;;;;;;0.70;0.70;;;;;;;;;;5079648;28;20547;-90
2022/10/15 07:17:34;;;;;;;0.70;0.70;;;;;;;;;;5065427;28;20858;-89
2022/10/15 07:20:03;;;;;;;0.73;0.73;;;;;;;;;;5084700;28;20438;-86
2022/10/15 07:22:31;;;;;;;0.70;0.70;;;;;;;;;;5083937;28;20452;-89
2022/10/15 07:24:59;;;;;;;1.80;1.63;;;;;;;;;;5067646;28;21042;-90
2022/10/15 07:27:26;;;;;;;0.60;0.60;;;;;;;;;;5085086;28;20431;-89
2022/10/15 07:30:03;;;;;;;0.70;0.70;;;;;;;;;;5076478;28;20506;-90
2022/10/15 07:32:29;;;;;;;2.10;1.03;;;;;;;;;;5086331;28;20481;-88
2022/10/15 07:35:06;;;;;;;0.80;0.80;;;;;;;;;;5065609;28;20924;-90
2022/10/15 07:37:34;;;;;;;0.90;0.90;;;;;;;;;;5070658;28;20544;-91
2022/10/15 07:40:01;;;;;;;0.70;0.70;;;;;;;;;;5079864;28;20435;-91
2022/10/15 07:42:28;;;;;;;0.60;0.60;;;;;;;;;;5083658;28;20443;-89
2022/10/15 07:45:11;;;;;;;0.70;0.70;;;;;;;;;;5077375;28;20436;-87
2022/10/15 07:47:38;;;;;;;0.60;0.60;;;;;;;;;;5060486;28;20961;-89
2022/10/15 08:10:01;;;;;;;0.70;0.70;;;;;;;;;;5082731;28;20414;-82
2022/10/15 08:12:30;;;;;;;0.70;0.60;;;;;;;;;;5063577;28;20560;-81
2022/10/15 08:14:56;;;;;;;0.70;0.60;;;;;;;;;;5060421;28;20447;-86
2022/10/15 08:17:24;;;;;;;0.70;0.70;;;;;;;;;;5082771;28;21008;-87
2022/10/15 08:19:52;;;;;;;0.80;0.80;;;;;;;;;;5084593;28;20497;-87
2022/10/15 08:22:19;;;;;;;0.70;0.63;;;;;;;;;;5086411;28;21346;-88
2022/10/15 08:24:46;;;;;;;0.90;0.90;;;;;;;;;;5090584;28;20443;-86
2022/10/15 08:27:14;;;;;;;0.70;0.60;;;;;;;;;;5090932;28;20461;-87
2022/10/15 08:29:45;;;;;;;0.70;0.70;;;;;;;;;;5046164;28;20452;-85
2022/10/15 08:32:12;;;;;;;0.70;0.70;;;;;;;;;;5060639;28;20553;-83
2022/10/15 08:34:38;;;;;;;0.80;0.80;;;;;;;;;;5079852;28;20449;-86
2022/10/15 08:37:05;;;;;;;0.70;0.60;;;;;;;;;;5062707;28;20998;-85
2022/10/15 08:39:32;;;;;;;0.70;0.70;;;;;;;;;;5071302;28;20450;-84
2022/10/15 08:42:01;;;;;;;0.70;0.70;;;;;;;;;;5062134;28;20461;-88
2022/10/15 08:44:36;;;;;;;0.80;0.80;;;;;;;;;;5065429;28;21001;-84
2022/10/15 08:47:07;;;;;;;0.70;0.70;;;;;;;;;;5079879;28;20449;-86
2022/10/15 08:49:42;;;;;;;0.70;0.70;;;;;;;;;;5059205;28;20445;-85
2022/10/15 08:52:16;;;;;;;0.70;0.70;;;;;;;;;;5053077;28;20899;-86
2022/10/15 08:54:42;;;;;;;0.70;0.70;;;;;;;;;;5077945;28;20449;-83
2022/10/15 08:57:22;;;;;;;0.70;0.60;;;;;;;;;;5084241;28;20452;-85
2022/10/15 09:00:00;;;;;;;0.83;0.83;;;;;;;;;;5053550;28;20797;-86
2022/10/15 09:02:33;;;;;;;0.70;0.60;;;;;;;;;;5081177;28;20442;-87
2022/10/15 09:05:08;;;;;;;1.20;0.80;;;;;;;;;;5083070;28;20427;-86
2022/10/15 09:07:38;;;;;;;0.70;0.60;;;;;;;;;;5064441;28;20452;-84
2022/10/15 09:10:11;;;;;;;0.70;0.60;;;;;;;;;;5064753;28;20497;-81
2022/10/15 09:12:44;;;;;;;0.70;0.70;;;;;;;;;;5064316;28;20496;-85
2022/10/15 09:15:14;;;;;;;0.70;0.70;;;;;;;;;;5070632;28;20459;-85
2022/10/15 09:17:42;;;;;;;0.77;0.77;;;;;;;;;;5085987;28;20437;-82
2022/10/15 09:20:17;;;;;;;0.70;0.70;;;;;;;;;;5079348;28;20447;-88
2022/10/15 09:22:52;;;;;;;0.70;0.70;;;;;;;;;;5071467;28;20466;-85
2022/10/15 09:25:20;;;;;;;0.70;0.70;;;;;;;;;;5071213;28;20497;-82
2022/10/15 09:27:49;;;;;;;0.70;0.70;;;;;;;;;;5074748;28;20434;-82
2022/10/15 09:30:29;;;;;;;0.70;0.70;;;;;;;;;;5084601;28;20450;-83
2022/10/15 09:32:58;;;;;;;0.70;0.70;;;;;;;;;;5063243;28;20483;-84
2022/10/15 09:35:28;;;;;;;0.70;0.70;;;;;;;;;;5083953;28;20886;-84
2022/10/15 09:37:59;;;;;;;0.70;0.70;;;;;;;;;;5083696;28;20413;-86
2022/10/15 09:40:38;;;;;;;0.80;0.70;;;;;;;;;;5079447;28;20462;-84
2022/10/15 09:43:06;;;;;;;0.70;0.60;;;;;;;;;;5079081;28;20438;-85
2022/10/15 09:45:32;;;;;;;0.70;0.60;;;;;;;;;;5080003;28;20420;-84
2022/10/15 09:48:08;;;;;;;0.80;0.77;;;;;;;;;;5090493;28;20417;-85
2022/10/15 09:50:40;;;;;;;0.70;0.70;;;;;;;;;;5081005;28;20454;-86
2022/10/15 09:53:13;;;;;;;1.53;1.43;;;;;;;;;;5079404;28;20478;-81
2022/10/15 09:55:46;;;;;;;0.70;0.70;;;;;;;;;;5085379;28;20430;-84
2022/10/15 09:58:15;;;;;;;0.70;0.70;;;;;;;;;;5075572;28;20915;-85
2022/10/15 10:00:53;;;;;;;0.70;0.70;;;;;;;;;;5075850;28;20447;-83
2022/10/15 10:03:23;;;;;;;0.70;0.60;;;;;;;;;;5097628;28;20453;-84
2022/10/15 10:05:57;;;;;;;0.70;0.70;;;;;;;;;;5068185;28;20449;-78
2022/10/15 10:08:26;;;;;;;0.70;0.60;;;;;;;;;;5059039;28;20437;-84
2022/10/15 10:10:57;;;;;;;0.70;0.60;;;;;;;;;;5087055;28;20430;-85
2022/10/15 10:13:25;;;;;;;0.80;0.80;;;;;;;;;;5088367;28;20486;-85
2022/10/15 10:15:52;;;;;;;0.70;0.70;;;;;;;;;;5066456;28;20890;-85
2022/10/15 10:18:26;;;;;;;0.70;0.60;;;;;;;;;;5091861;28;20449;-83
2022/10/15 10:20:57;;;;;;;0.70;0.60;;;;;;;;;;5082286;28;20496;-83
2022/10/15 10:23:30;;;;;;;0.70;0.70;;;;;;;;;;5056902;28;20541;-85
2022/10/15 10:25:59;;;;;;;0.70;0.70;;;;;;;;;;5071136;28;20442;-83
2022/10/15 10:28:28;;;;;;;0.70;0.70;;;;;;;;;;5065792;28;20805;-87
2022/10/15 10:31:02;;;;;;;0.70;0.67;;;;;;;;;;5088059;28;20447;-85
2022/10/15 10:33:31;;;;;;;0.70;0.60;;;;;;;;;;5068085;28;20440;-82
2022/10/15 10:35:59;;;;;;;0.70;0.70;;;;;;;;;;5090785;28;20522;-84
2022/10/15 10:38:29;;;;;;;0.70;0.60;;;;;;;;;;5087733;28;20918;-84
2022/10/15 10:41:04;;;;;;;0.70;0.60;;;;;;;;;;5091150;28;20458;-82
2022/10/15 10:43:31;;;;;;;0.70;0.60;;;;;;;;;;5084138;28;20780;-79
2022/10/15 10:46:16;;;;;;;1.10;1.00;;;;;;;;;;5090054;28;20448;-83
2022/10/15 10:48:50;;;;;;;0.70;0.60;;;;;;;;;;5086705;28;20432;-82
2022/10/15 10:51:18;;;;;;;0.70;0.60;;;;;;;;;;5083047;28;20537;-84
2022/10/15 10:53:52;;;;;;;0.70;0.70;;;;;;;;;;5070141;28;20455;-81
2022/10/15 10:56:27;;;;;;;0.70;0.70;;;;;;;;;;5084957;28;20437;-81
2022/10/15 10:58:59;;;;;;;0.73;0.70;;;;;;;;;;5087032;28;20503;-83
2022/10/15 11:01:27;;;;;;;0.80;0.70;;;;;;;;;;5068276;28;20894;-84
2022/10/15 11:03:55;;;;;;;0.70;0.60;;;;;;;;;;5062807;28;20414;-83
2022/10/15 11:06:36;;;;;;;0.70;0.67;;;;;;;;;;5070843;28;20528;-84
2022/10/15 11:09:12;;;;;;;0.70;0.70;;;;;;;;;;5076926;28;20404;-84
2022/10/15 11:11:46;;;;;;;0.70;0.60;;;;;;;;;;5086132;28;20431;-84
2022/10/15 11:14:19;;;;;;;0.70;0.60;;;;;;;;;;5063472;28;20440;-82
2022/10/15 11:16:49;;;;;;;0.70;0.60;;;;;;;;;;5068992;28;20434;-81
2022/10/15 11:19:22;;;;;;;0.70;0.63;;;;;;;;;;5059895;28;20456;-84
2022/10/15 11:22:15;;;;;;;0.70;0.70;;;;;;;;;;5088049;28;20478;-82
2022/10/15 11:24:43;;;;;;;0.70;0.70;;;;;;;;;;5068836;28;21001;-79
2022/10/15 11:27:35;;;;;;;0.70;0.70;;;;;;;;;;5088975;28;20507;-83
2022/10/15 11:30:03;;;;;;;0.70;0.60;;;;;;;;;;5081756;28;20529;-81
2022/10/15 11:32:38;;;;;;;0.70;0.67;;;;;;;;;;5082827;28;20431;-81
2022/10/15 11:35:34;;;;;;;0.70;0.70;;;;;;;;;;5071355;28;20467;-81
2022/10/15 11:38:24;;;;;;;0.70;0.70;;;;;;;;;;5084748;28;20454;-80
2022/10/15 11:40:59;;;;;;;0.70;0.70;;;;;;;;;;5087366;28;20412;-83
2022/10/15 11:43:36;;;;;;;0.70;0.60;;;;;;;;;;5081102;28;20424;-82
2022/10/15 11:46:05;;;;;;;0.70;0.60;;;;;;;;;;5065721;28;20422;-82
2022/10/15 11:48:36;;;;;;;0.70;0.70;;;;;;;;;;5057216;28;20952;-82
2022/10/15 11:51:08;;;;;;;0.70;0.60;;;;;;;;;;5085042;28;20460;-83
2022/10/15 11:53:49;;;;;;;0.70;0.70;;;;;;;;;;5075273;28;20494;-81
2022/10/15 11:56:18;;;;;;;0.70;0.60;;;;;;;;;;5077284;28;20959;-83
2022/10/15 11:58:47;;;;;;;0.70;0.60;;;;;;;;;;5085097;28;20441;-82
2022/10/15 12:01:17;;;;;;;0.70;0.67;;;;;;;;;;5080088;28;20446;-84
2022/10/15 12:03:50;;;;;;;0.80;0.80;;;;;;;;;;5062790;28;20551;-86
2022/10/15 12:06:20;;;;;;;0.70;0.70;;;;;;;;;;5084142;28;20424;-85
2022/10/15 12:08:48;;;;;;;0.70;0.60;;;;;;;;;;5082267;28;20948;-81
2022/10/15 12:11:25;;;;;;;0.80;0.70;;;;;;;;;;5080573;28;20458;-82
2022/10/15 12:13:55;;;;;;;0.70;0.70;;;;;;;;;;5065343;28;20493;-82
2022/10/15 12:16:26;;;;;;;0.70;0.67;;;;;;;;;;5084932;28;21015;-82
2022/10/15 12:18:56;;;;;;;0.70;0.60;;;;;;;;;;5080276;28;20406;-79
2022/10/15 12:21:41;;;;;;;0.77;0.70;;;;;;;;;;5084604;28;20933;-79
2022/10/15 12:24:23;;;;;;;0.70;0.70;;;;;;;;;;5084792;28;20413;-79
2022/10/15 12:26:51;;;;;;;0.70;0.60;;;;;;;;;;5066466;28;20481;-83
2022/10/15 12:29:19;;;;;;;0.70;0.70;;;;;;;;;;5063831;28;20448;-82
2022/10/15 12:31:47;;;;;;;0.80;0.70;;;;;;;;;;5090441;28;20783;-81
2022/10/15 12:34:28;;;;;;;0.70;0.60;;;;;;;;;;5073157;28;20456;-81
2022/10/15 12:37:02;;;;;;;0.70;0.70;;;;;;;;;;5087454;28;20425;-80
2022/10/15 12:39:29;;;;;;;0.80;0.70;;;;;;;;;;5076192;28;20426;-81
2022/10/15 12:42:21;;;;;;;0.70;0.70;;;;;;;;;;5080227;28;20796;-81
2022/10/15 12:44:50;;;;;;;0.80;0.70;;;;;;;;;;5082508;28;20439;-79
2022/10/15 12:47:31;;;;;;;0.80;0.77;;;;;;;;;;5075351;28;20530;-76
2022/10/15 12:50:01;;;;;;;0.80;0.70;;;;;;;;;;5084184;28;20981;-79
2022/10/15 12:52:50;;;;;;;0.70;0.60;;;;;;;;;;5076644;28;20446;-81
2022/10/15 12:55:25;;;;;;;0.70;0.70;;;;;;;;;;5083287;28;20444;-78
2022/10/15 12:57:58;;;;;;;0.70;0.60;;;;;;;;;;5052968;28;20901;-78
2022/10/15 13:00:38;;;;;;;0.73;0.70;;;;;;;;;;5054470;28;20449;-81
2022/10/15 13:03:16;;;;;;;0.70;0.70;;;;;;;;;;5066969;28;21240;-80
2022/10/15 13:05:46;;;;;;;0.70;0.60;;;;;;;;;;5056610;28;20463;-79
2022/10/15 13:08:30;;;;;;;0.80;0.63;;;;;;;;;;5084637;28;20426;-78
2022/10/15 13:10:58;;;;;;;0.70;0.70;;;;;;;;;;5079683;28;20447;-79
2022/10/15 13:13:28;;;;;;;0.70;0.70;;;;;;;;;;5064705;28;20482;-80
2022/10/15 13:15:57;;;;;;;0.70;0.60;;;;;;;;;;5063880;28;20558;-82
2022/10/15 13:18:25;;;;;;;0.70;0.60;;;;;;;;;;5073040;28;20443;-81
2022/10/15 13:20:55;;;;;;;0.70;0.60;;;;;;;;;;5073864;28;20964;-80
2022/10/15 13:23:24;;;;;;;0.70;0.60;;;;;;;;;;5062917;28;20492;-82
2022/10/15 13:26:12;;;;;;;0.70;0.60;;;;;;;;;;5079349;28;20447;-80
2022/10/15 13:28:41;;;;;;;0.70;0.60;;;;;;;;;;5080191;28;20447;-81
2022/10/15 13:31:13;;;;;;;0.70;0.60;;;;;;;;;;5057427;28;20530;-82
2022/10/15 13:33:41;;;;;;;0.70;0.60;;;;;;;;;;5077665;28;20547;-81
2022/10/15 13:36:16;;;;;;;0.70;0.60;;;;;;;;;;5081343;28;20461;-80
2022/10/15 13:38:43;;;;;;;0.70;0.60;;;;;;;;;;5080916;28;20927;-85
2022/10/15 13:41:13;;;;;;;0.70;0.60;;;;;;;;;;5072880;28;20452;-83
2022/10/15 13:43:49;;;;;;;0.70;0.70;;;;;;;;;;5062597;28;20970;-82
2022/10/15 13:46:16;;;;;;;0.70;0.60;;;;;;;;;;5063124;28;20530;-82
2022/10/15 13:48:42;;;;;;;0.70;0.60;;;;;;;;;;5072857;28;20572;-82
2022/10/15 13:51:14;;;;;;;0.70;0.60;;;;;;;;;;5078113;28;20951;-82
2022/10/15 13:53:41;;;;;;;0.70;0.70;;;;;;;;;;5061605;28;20478;-80
2022/10/15 13:56:16;;;;;;;0.70;0.60;;;;;;;;;;5083347;28;20449;-84
2022/10/15 13:58:45;;;;;;;0.70;0.60;;;;;;;;;;5082827;28;20459;-80
2022/10/15 14:01:13;;;;;;;0.70;0.67;;;;;;;;;;5064473;28;20426;-82
2022/10/15 14:03:45;;;;;;;0.70;0.70;;;;;;;;;;5080591;28;20454;-86
2022/10/15 14:06:15;;;;;;;0.70;0.60;;;;;;;;;;5080987;28;20509;-82
2022/10/15 14:08:42;;;;;;;0.80;0.80;;;;;;;;;;5068755;28;20935;-81
2022/10/15 14:11:10;;;;;;;0.70;0.70;;;;;;;;;;5088183;28;20438;-79
2022/10/15 14:13:42;;;;;;;0.70;0.60;;;;;;;;;;5077932;28;20510;-78
2022/10/15 14:16:13;;;;;;;0.70;0.60;;;;;;;;;;5056005;28;20459;-81
2022/10/15 14:18:42;;;;;;;0.70;0.70;;;;;;;;;;5066565;28;20451;-80
2022/10/15 14:21:17;;;;;;;0.70;0.60;;;;;;;;;;5076516;28;20450;-80
2022/10/15 14:23:44;;;;;;;0.70;0.60;;;;;;;;;;5066389;28;20443;-79
2022/10/15 14:26:12;;;;;;;0.70;0.70;;;;;;;;;;5068115;28;20512;-82
2022/10/15 14:28:40;;;;;;;0.70;0.60;;;;;;;;;;5080485;28;20485;-82
2022/10/15 14:31:08;;;;;;;0.70;0.60;;;;;;;;;;5085635;28;20423;-83
2022/10/15 14:33:44;;;;;;;0.70;0.60;;;;;;;;;;5080069;28;20899;-83
2022/10/15 14:36:21;;;;;;;0.70;0.60;;;;;;;;;;5077919;28;20487;-80
2022/10/15 14:38:50;;;;;;;0.80;0.80;;;;;;;;;;5084356;28;20831;-86
2022/10/15 14:41:22;;;;;;;0.77;0.70;;;;;;;;;;5088819;28;20814;-83
2022/10/15 14:43:58;;;;;;;0.70;0.60;;;;;;;;;;5052365;28;20508;-83
2022/10/15 14:46:32;;;;;;;0.70;0.60;;;;;;;;;;5080498;28;21288;-82
2022/10/15 14:49:01;;;;;;;0.80;0.70;;;;;;;;;;5083027;28;20887;-85
2022/10/15 14:51:27;;;;;;;0.70;0.60;;;;;;;;;;5065231;28;20844;-83
2022/10/15 14:53:55;;;;;;;0.70;0.60;;;;;;;;;;5065981;28;20554;-81
2022/10/15 14:56:29;;;;;;;0.70;0.70;;;;;;;;;;5086117;28;20436;-84
2022/10/15 14:58:59;;;;;;;0.70;0.60;;;;;;;;;;5079108;28;20446;-84
2022/10/15 15:01:29;;;;;;;0.70;0.60;;;;;;;;;;5084892;28;20414;-88
2022/10/15 15:03:56;;;;;;;0.80;0.70;;;;;;;;;;5085226;28;20481;-85
2022/10/15 15:06:24;;;;;;;0.70;0.60;;;;;;;;;;5089467;28;20448;-84
2022/10/15 15:08:54;;;;;;;0.70;0.60;;;;;;;;;;5075397;28;20954;-85
2022/10/15 15:11:24;;;;;;;0.80;0.70;;;;;;;;;;5072616;28;20946;-84
2022/10/15 15:13:52;;;;;;;0.80;0.70;;;;;;;;;;5085978;28;20417;-84
2022/10/15 15:16:19;;;;;;;0.80;0.70;;;;;;;;;;5072381;28;20456;-84
2022/10/15 15:18:47;;;;;;;0.70;0.60;;;;;;;;;;5070069;28;20507;-76
2022/10/15 15:21:15;;;;;;;0.70;0.70;;;;;;;;;;5086909;28;20450;-77
2022/10/15 15:23:43;;;;;;;0.80;0.77;;;;;;;;;;5085148;28;20519;-78
2022/10/15 15:26:10;;;;;;;0.80;0.70;;;;;;;;;;5056638;28;20430;-79
2022/10/15 15:28:37;;;;;;;0.80;0.77;;;;;;;;;;5060108;28;20438;-82